Station Historical Data
Daily Summary for September 11, 2017 Units:  English    Metric   Both
« Previous Day
Next Day »
Daily Weekly Monthly Yearly Custom
  High: Low: Average:
Temperature: 63.1 °F 54.6 °F 58.6 °F
Dew Point: 59.1 °F 48.0 °F 54.4 °F
Humidity: 93% 58% 87%
Wind Speed: 20.0mph 0.0mph 5.2mph
Wind Gust: 38.0mph - -
Wind- - SE
Pressure: 30.16 in 29.54 in -
Precipitation: 3.30 in    
Historical Graphs
 
 
Tabular Data for September 11, 2017
Time Temperature Dew Point Pressure Wind Wind Speed Wind Gust Humidity Rainfall Rate (Hourly) Conditions
00:00 63.1 °F 48.1 °F 30.16 in West 1.0 mph 2.0 mph 58% 0.00 in OVC
00:10 63.0 °F 48.0 °F 30.16 in WSW 1.0 mph 5.0 mph 58% 0.00 in OVC
00:15 62.9 °F 48.3 °F 30.16 in Calm   3.0 mph 59% 0.00 in OVC
00:20 62.8 °F 48.7 °F 30.15 in West 1.0 mph 5.0 mph 60% 0.00 in CLR
00:25 62.8 °F 48.7 °F 30.16 in West 1.0 mph 6.0 mph 60% 0.00 in CLR
00:30 62.8 °F 48.7 °F 30.15 in West 1.0 mph 5.0 mph 60% 0.00 in CLR
00:35 62.8 °F 48.7 °F 30.16 in Calm   3.0 mph 60% 0.00 in CLR
00:40 62.7 °F 48.6 °F 30.16 in West 1.0 mph 2.0 mph 60% 0.00 in CLR
00:45 62.6 °F 48.5 °F 30.16 in West 1.0 mph 3.0 mph 60% 0.00 in CLR
00:50 62.5 °F 48.9 °F 30.16 in West 1.0 mph 3.0 mph 61% 0.00 in CLR
00:55 62.5 °F 48.9 °F 30.15 in West 2.0 mph 5.0 mph 61% 0.00 in CLR
01:00 62.5 °F 48.9 °F 30.15 in Calm   5.0 mph 61% 0.00 in CLR
01:05 62.4 °F 49.2 °F 30.15 in West 1.0 mph 3.0 mph 62% 0.00 in CLR
01:10 62.4 °F 48.8 °F 30.15 in WSW 1.0 mph 3.0 mph 61% 0.00 in CLR
01:15 62.3 °F 49.5 °F 30.15 in Calm   3.0 mph 63% 0.00 in CLR
01:20 62.2 °F 49.0 °F 30.14 in West 1.0 mph 3.0 mph 62% 0.00 in CLR
01:25 62.2 °F 49.4 °F 30.14 in Calm   2.0 mph 63% 0.00 in CLR
01:30 62.1 °F 48.9 °F 30.14 in West 1.0 mph 2.0 mph 62% 0.00 in CLR
01:40 62.1 °F 49.4 °F 30.14 in West 1.0 mph 3.0 mph 63% 0.00 in CLR
01:45 62.1 °F 49.4 °F 30.14 in Calm   2.0 mph 63% 0.00 in CLR
01:50 62.1 °F 49.3 °F 30.14 in Calm   2.0 mph 63% 0.00 in CLR
01:55 62.1 °F 49.4 °F 30.14 in Calm   5.0 mph 63% 0.00 in CLR
02:00 62.1 °F 49.4 °F 30.14 in WNW 1.0 mph 5.0 mph 63% 0.00 in CLR
02:05 62.1 °F 49.4 °F 30.13 in West 1.0 mph 5.0 mph 63% 0.00 in CLR
02:10 62.0 °F 49.7 °F 30.13 in WNW 1.0 mph 3.0 mph 64% 0.00 in CLR
02:15 62.1 °F 49.8 °F 30.13 in West 1.0 mph 5.0 mph 64% 0.00 in CLR
02:20 62.1 °F 49.8 °F 30.13 in West 1.0 mph 3.0 mph 64% 0.00 in CLR
02:30 62.0 °F 50.1 °F 30.12 in WNW 1.0 mph 2.0 mph 65% 0.00 in CLR
02:40 61.9 °F 50.0 °F 30.12 in WNW 1.0 mph 3.0 mph 65% 0.00 in CLR
02:45 61.9 °F 50.0 °F 30.11 in WNW 1.0 mph 5.0 mph 65% 0.00 in CLR
02:50 61.9 °F 50.4 °F 30.11 in Calm   5.0 mph 66% 0.00 in CLR
02:55 61.8 °F 50.3 °F 30.10 in West 1.0 mph 6.0 mph 66% 0.00 in CLR
03:00 61.8 °F 50.3 °F 30.10 in Calm   2.0 mph 66% 0.00 in CLR
03:05 61.7 °F 50.2 °F 30.09 in WNW 1.0 mph 3.0 mph 66% 0.00 in CLR
03:10 61.7 °F 50.2 °F 30.09 in WNW 1.0 mph 3.0 mph 66% 0.00 in CLR
03:15 61.7 °F 50.6 °F 30.09 in Calm   3.0 mph 67% 0.00 in CLR
03:20 61.6 °F 50.5 °F 30.09 in West 1.0 mph 2.0 mph 67% 0.00 in CLR
03:25 61.5 °F 50.5 °F 30.09 in WNW 1.0 mph 5.0 mph 67% 0.00 in CLR
03:30 61.5 °F 50.8 °F 30.09 in WNW 1.0 mph 6.0 mph 68% 0.00 in CLR
03:35 61.3 °F 51.0 °F 30.09 in WNW 1.0 mph 2.0 mph 69% 0.00 in CLR
03:40 61.0 °F 51.1 °F 30.09 in West 1.0 mph 3.0 mph 70% 0.00 in CLR
03:45 60.7 °F 51.6 °F 30.09 in West 1.0 mph 5.0 mph 72% 0.00 in CLR
03:50 60.3 °F 51.6 °F 30.09 in Calm   2.0 mph 73% 0.00 in CLR
03:55 59.9 °F 51.6 °F 30.09 in West 1.0 mph 3.0 mph 74% 0.00 in CLR
04:00 59.6 °F 51.7 °F 30.09 in West 1.0 mph 2.0 mph 75% 0.00 in CLR
04:05 59.3 °F 51.7 °F 30.09 in West 1.0 mph 3.0 mph 76% 0.00 in CLR
04:10 59.1 °F 51.5 °F 30.09 in West 1.0 mph 2.0 mph 76% 0.00 in CLR
04:20 58.7 °F 51.9 °F 30.09 in Calm   3.0 mph 78% 0.00 in CLR
04:25 58.5 °F 52.0 °F 30.09 in West 1.0 mph 2.0 mph 79% 0.00 in CLR
04:30 58.3 °F 51.8 °F 30.09 in West 2.0 mph 5.0 mph 79% 0.00 in CLR
04:35 58.1 °F 52.0 °F 30.09 in WNW 1.0 mph 2.0 mph 80% 0.00 in CLR
04:40 57.8 °F 52.4 °F 30.08 in Calm   2.0 mph 82% 0.00 in CLR
04:45 57.6 °F 52.5 °F 30.08 in Calm   2.0 mph 83% 0.00 in CLR
04:50 57.4 °F 52.6 °F 30.08 in Calm   1.0 mph 84% 0.00 in CLR
04:55 57.2 °F 52.4 °F 30.08 in Calm   2.0 mph 84% 0.00 in CLR
05:00 57.0 °F 52.5 °F 30.08 in Calm   3.0 mph 85% 0.00 in CLR
05:05 56.9 °F 52.8 °F 30.08 in Calm   1.0 mph 86% 0.00 in CLR
05:10 56.7 °F 52.6 °F 30.07 in Calm   1.0 mph 86% 0.01 in CLR
05:15 56.6 °F 52.8 °F 30.07 in Calm   2.0 mph 87% 0.00 in CLR
05:20 56.5 °F 53.0 °F 30.07 in Calm   1.0 mph 88% 0.00 in -RA
05:25 56.4 °F 52.9 °F 30.07 in Calm   1.0 mph 88% 0.01 in -RA
05:30 56.2 °F 52.7 °F 30.07 in Calm   5.0 mph 88% 0.00 in -RA
05:35 56.1 °F 52.9 °F 30.07 in Calm   2.0 mph 89% 0.01 in -RA
05:40 56.0 °F 52.5 °F 30.07 in WNW 1.0 mph 3.0 mph 88% 0.00 in -RA
05:45 55.9 °F 52.4 °F 30.06 in Calm   2.0 mph 88% 0.01 in -RA
05:50 55.9 °F 52.7 °F 30.06 in Calm   2.0 mph 89% 0.00 in -RA
05:55 55.8 °F 52.6 °F 30.06 in WNW 1.0 mph 2.0 mph 89% 0.00 in -RA
06:00 55.7 °F 52.5 °F 30.06 in Calm   2.0 mph 89% 0.01 in -RA
06:05 55.7 °F 52.5 °F 30.07 in Calm   2.0 mph 89% 0.00 in -RA
06:10 55.7 °F 52.5 °F 30.06 in Calm   2.0 mph 89% 0.01 in -RA
06:15 55.7 °F 52.8 °F 30.06 in Calm   3.0 mph 90% 0.00 in -RA
06:20 55.7 °F 52.8 °F 30.06 in Calm   3.0 mph 90% 0.01 in -RA
06:25 55.6 °F 52.7 °F 30.05 in Calm   3.0 mph 90% 0.00 in -RA
06:30 55.6 °F 52.7 °F 30.05 in Calm   2.0 mph 90% 0.00 in -RA
06:35 55.6 °F 52.7 °F 30.04 in Calm   2.0 mph 90% 0.01 in -RA
06:40 55.5 °F 52.6 °F 30.04 in Calm   1.0 mph 90% 0.00 in -RA
06:45 55.5 °F 52.6 °F 30.04 in Calm   1.0 mph 90% 0.01 in -RA
06:50 55.4 °F 52.5 °F 30.04 in Calm   3.0 mph 90% 0.00 in -RA
06:55 55.4 °F 52.5 °F 30.04 in WNW 1.0 mph 5.0 mph 90% 0.01 in -RA
07:00 55.4 °F 52.5 °F 30.04 in Calm   2.0 mph 90% 0.00 in -RA
07:05 55.4 °F 52.5 °F 30.04 in North 1.0 mph 2.0 mph 90% 0.01 in -RA
07:10 55.3 °F 52.7 °F 30.04 in West 1.0 mph 2.0 mph 91% 0.00 in -RA
07:15 55.3 °F 52.4 °F 30.04 in West 1.0 mph 2.0 mph 90% 0.00 in -RA
07:20 55.2 °F 52.3 °F 30.04 in Calm   1.0 mph 90% 0.01 in -RA
07:25 55.2 °F 52.3 °F 30.04 in Calm   5.0 mph 90% 0.00 in -RA
07:30 55.1 °F 52.2 °F 30.04 in Calm   6.0 mph 90% 0.00 in -RA
07:35 55.1 °F 52.2 °F 30.04 in Calm   1.0 mph 90% 0.01 in -RA
07:40 54.9 °F 52.0 °F 30.03 in NW 1.0 mph 5.0 mph 90% 0.00 in -RA
07:45 54.9 °F 52.0 °F 30.03 in Calm   3.0 mph 90% 0.01 in -RA
07:50 54.9 °F 52.0 °F 30.03 in Calm   1.0 mph 90% 0.00 in -RA
07:55 54.9 °F 52.3 °F 30.03 in Calm   2.0 mph 91% 0.01 in -RA
08:00 54.8 °F 52.2 °F 30.03 in Calm   1.0 mph 91% 0.01 in -RA
08:05 54.7 °F 52.1 °F 30.03 in Calm   2.0 mph 91% 0.01 in -RA
08:10 54.7 °F 52.1 °F 30.02 in Calm   1.0 mph 91% 0.01 in -RA
08:15 54.7 °F 52.1 °F 30.02 in Calm   2.0 mph 91% 0.01 in -RA
08:20 54.7 °F 52.1 °F 30.02 in Calm   2.0 mph 91% 0.00 in -RA
08:30 54.7 °F 52.1 °F 30.01 in WNW 1.0 mph 3.0 mph 91% 0.01 in -RA
08:40 54.7 °F 52.1 °F 30.01 in Calm   6.0 mph 91% 0.00 in -RA
08:45 54.6 °F 52.0 °F 30.00 in NW 1.0 mph 2.0 mph 91% 0.01 in -RA
08:50 54.6 °F 52.0 °F 30.01 in Calm   2.0 mph 91% 0.01 in -RA
08:55 54.6 °F 52.0 °F 30.01 in Calm   1.0 mph 91% 0.01 in -RA
09:00 54.6 °F 52.1 °F 30.00 in Calm   2.0 mph 91% 0.01 in -RA
09:05 54.6 °F 52.0 °F 30.00 in Calm   2.0 mph 91% 0.01 in -RA
09:10 54.6 °F 52.0 °F 30.00 in Calm   3.0 mph 91% 0.01 in -RA
09:15 54.6 °F 52.3 °F 30.00 in Calm   1.0 mph 92% 0.01 in -RA
09:20 54.6 °F 52.3 °F 29.99 in Calm   3.0 mph 92% 0.01 in -RA
09:25 54.6 °F 52.3 °F 29.99 in NW 1.0 mph 5.0 mph 92% 0.01 in -RA
09:30 54.7 °F 52.4 °F 29.98 in NW 1.0 mph 3.0 mph 92% 0.01 in -RA
09:40 54.7 °F 52.4 °F 29.97 in Calm   3.0 mph 92% 0.02 in -RA
09:45 54.7 °F 52.5 °F 29.97 in Calm   3.0 mph 92% 0.00 in OVC
09:50 54.8 °F 52.5 °F 29.96 in Calm   3.0 mph 92% 0.02 in RA
09:55 54.9 °F 52.6 °F 29.96 in Calm   1.0 mph 92% 0.01 in RA
10:00 54.9 °F 52.6 °F 29.96 in Calm   5.0 mph 92% 0.01 in RA
10:05 54.9 °F 52.6 °F 29.95 in Calm   5.0 mph 92% 0.01 in OVC
10:10 54.9 °F 52.6 °F 29.96 in Calm   3.0 mph 92% 0.01 in RA
10:15 54.9 °F 52.6 °F 29.95 in Calm   1.0 mph 92% 0.01 in RA
10:20 55.0 °F 52.7 °F 29.95 in WNW 1.0 mph 3.0 mph 92% 0.00 in OVC
10:25 55.0 °F 52.7 °F 29.96 in WNW 1.0 mph 2.0 mph 92% 0.01 in OVC
10:30 55.1 °F 52.8 °F 29.96 in Calm   2.0 mph 92% 0.01 in RA
10:40 55.3 °F 53.0 °F 29.94 in Calm   1.0 mph 92% 0.01 in OVC
10:45 55.3 °F 53.0 °F 29.94 in Calm   2.0 mph 92% 0.01 in OVC
10:50 55.4 °F 53.2 °F 29.92 in Calm   5.0 mph 92% 0.02 in RA
10:55 55.5 °F 53.2 °F 29.92 in Calm   2.0 mph 92% 0.00 in OVC
11:00 55.7 °F 53.4 °F 29.92 in Calm   2.0 mph 92% 0.01 in OVC
11:05 55.7 °F 53.4 °F 29.92 in Calm   2.0 mph 92% 0.01 in OVC
11:10 55.9 °F 53.9 °F 29.92 in Calm   1.0 mph 93% 0.01 in RA
11:15 56.1 °F 54.1 °F 29.91 in Calm   2.0 mph 93% 0.00 in -RA
11:20 56.2 °F 54.2 °F 29.91 in Calm   5.0 mph 93% 0.01 in -RA
11:25 56.4 °F 54.4 °F 29.91 in Calm   5.0 mph 93% 0.01 in -RA
11:30 56.6 °F 54.6 °F 29.91 in Calm   2.0 mph 93% 0.00 in -RA
11:35 56.8 °F 54.8 °F 29.90 in Calm   3.0 mph 93% 0.00 in -RA
11:40 57.0 °F 55.0 °F 29.89 in Calm   3.0 mph 93% 0.01 in -RA
11:45 57.1 °F 55.1 °F 29.90 in NNW 1.0 mph 5.0 mph 93% 0.00 in -RA
11:50 57.4 °F 55.4 °F 29.89 in Calm   2.0 mph 93% 0.00 in -RA
11:55 57.6 °F 55.6 °F 29.89 in Calm   3.0 mph 93% 0.01 in -RA
12:00 57.7 °F 55.7 °F 29.88 in Calm   5.0 mph 93% 0.01 in -RA
12:05 57.9 °F 55.9 °F 29.90 in NW 2.0 mph 5.0 mph 93% 0.00 in -RA
12:10 58.1 °F 56.1 °F 29.89 in Calm   2.0 mph 93% 0.00 in -RA
12:15 58.3 °F 56.3 °F 29.89 in Calm   2.0 mph 93% 0.00 in -RA
12:20 58.4 °F 56.4 °F 29.87 in Calm   2.0 mph 93% 0.00 in -RA
12:25 58.5 °F 56.5 °F 29.87 in Calm   3.0 mph 93% 0.01 in -RA
12:30 58.6 °F 56.6 °F 29.89 in NW 1.0 mph 3.0 mph 93% 0.00 in -RA
12:35 58.7 °F 56.7 °F 29.88 in Calm   2.0 mph 93% 0.00 in -RA
12:40 58.8 °F 56.8 °F 29.88 in Calm   3.0 mph 93% 0.01 in -RA
12:45 58.9 °F 56.9 °F 29.86 in ENE 1.0 mph 5.0 mph 93% 0.01 in -RA
12:50 59.0 °F 57.0 °F 29.84 in NNE 1.0 mph 5.0 mph 93% 0.00 in -RA
12:55 59.0 °F 56.7 °F 29.83 in NE 1.0 mph 9.0 mph 92% 0.00 in -RA
13:00 59.1 °F 56.8 °F 29.83 in Calm   7.0 mph 92% 0.01 in -RA
13:10 59.1 °F 56.8 °F 29.83 in NNW 1.0 mph 5.0 mph 92% 0.00 in -RA
13:15 59.1 °F 56.8 °F 29.83 in NW 1.0 mph 5.0 mph 92% 0.01 in -RA
13:20 59.1 °F 56.7 °F 29.82 in NW 1.0 mph 3.0 mph 92% 0.00 in -RA
13:25 59.0 °F 56.4 °F 29.82 in NNW 1.0 mph 3.0 mph 91% 0.01 in -RA
13:30 59.0 °F 56.7 °F 29.82 in Calm   2.0 mph 92% 0.01 in -RA
13:40 58.8 °F 56.5 °F 29.81 in North 1.0 mph 3.0 mph 92% 0.01 in -RA
13:45 58.7 °F 56.1 °F 29.81 in North 1.0 mph 3.0 mph 91% 0.01 in -RA
13:50 58.6 °F 56.0 °F 29.82 in North 1.0 mph 7.0 mph 91% 0.00 in -RA
13:55 58.5 °F 55.9 °F 29.81 in NNW 1.0 mph 5.0 mph 91% 0.01 in -RA
14:00 58.5 °F 55.9 °F 29.79 in Calm   2.0 mph 91% 0.01 in -RA
14:10 58.4 °F 56.1 °F 29.77 in East 1.0 mph 3.0 mph 92% 0.02 in -RA
14:15 58.4 °F 56.1 °F 29.76 in NE 1.0 mph 3.0 mph 92% 0.02 in RA
14:20 58.4 °F 55.8 °F 29.76 in Calm   5.0 mph 91% 0.02 in RA
14:25 58.4 °F 55.8 °F 29.75 in NNW 2.0 mph 5.0 mph 91% 0.03 in RA
14:30 58.3 °F 55.7 °F 29.74 in SSE 1.0 mph 5.0 mph 91% 0.01 in RA
14:40 58.2 °F 55.8 °F 29.72 in ENE 1.0 mph 6.0 mph 92% 0.02 in RA
14:45 58.1 °F 55.5 °F 29.73 in North 1.0 mph 5.0 mph 91% 0.01 in RA
14:50 58.1 °F 55.5 °F 29.71 in North 1.0 mph 5.0 mph 91% 0.01 in OVC
14:55 58.0 °F 55.4 °F 29.68 in East 1.0 mph 3.0 mph 91% 0.01 in OVC
15:00 58.0 °F 55.7 °F 29.71 in NNE 16.0 mph 26.0 mph 92% 0.02 in RA
15:10 58.1 °F 55.8 °F 29.69 in North 16.0 mph 26.0 mph 92% 0.01 in OVC
15:15 58.1 °F 55.8 °F 29.68 in North 16.0 mph 32.0 mph 92% 0.02 in RA
15:20 58.1 °F 55.8 °F 29.68 in North 16.0 mph 32.0 mph 92% 0.02 in RA
15:25 58.1 °F 55.8 °F 29.67 in North 16.0 mph 32.0 mph 92% 0.01 in OVC
15:30 58.1 °F 55.8 °F 29.67 in North 16.0 mph 32.0 mph 92% 0.03 in RA
15:35 58.2 °F 55.8 °F 29.67 in North 16.0 mph 32.0 mph 92% 0.03 in RA
15:40 58.2 °F 55.9 °F 29.68 in North 16.0 mph 32.0 mph 92% 0.03 in RA
15:45 58.2 °F 55.9 °F 29.67 in North 16.0 mph 32.0 mph 92% 0.03 in RA
15:50 58.3 °F 56.0 °F 29.66 in North 16.0 mph 32.0 mph 92% 0.03 in RA
15:55 58.3 °F 56.0 °F 29.66 in NNE 17.0 mph 35.0 mph 92% 0.03 in RA
16:00 58.4 °F 56.1 °F 29.65 in NNE 17.0 mph 35.0 mph 92% 0.03 in RA
16:05 58.4 °F 56.1 °F 29.65 in NNE 17.0 mph 35.0 mph 92% 0.03 in RA
16:10 58.5 °F 56.2 °F 29.65 in NNE 17.0 mph 35.0 mph 92% 0.04 in RA
16:15 58.5 °F 56.2 °F 29.65 in NNE 20.0 mph 38.0 mph 92% 0.03 in RA
16:20 58.5 °F 56.2 °F 29.64 in North 20.0 mph 38.0 mph 92% 0.04 in RA
16:25 58.5 °F 56.2 °F 29.64 in North 20.0 mph 38.0 mph 92% 0.03 in RA
16:30 58.6 °F 56.3 °F 29.64 in North 20.0 mph 38.0 mph 92% 0.03 in RA
16:40 58.7 °F 56.4 °F 29.64 in North 20.0 mph 38.0 mph 92% 0.06 in RA
16:45 58.7 °F 56.4 °F 29.64 in North 20.0 mph 38.0 mph 92% 0.08 in RA
16:50 58.8 °F 56.8 °F 29.64 in North 20.0 mph 38.0 mph 93% 0.05 in RA
16:55 58.9 °F 56.8 °F 29.63 in North 20.0 mph 38.0 mph 93% 0.04 in RA
17:00 58.9 °F 56.9 °F 29.62 in North 20.0 mph 38.0 mph 93% 0.05 in RA
17:05 59.0 °F 57.0 °F 29.62 in North 20.0 mph 38.0 mph 93% 0.06 in RA
17:10 59.0 °F 56.7 °F 29.61 in North 20.0 mph 38.0 mph 92% 0.04 in RA
17:15 59.1 °F 57.1 °F 29.60 in NNE 16.0 mph 38.0 mph 93% 0.04 in RA
17:20 59.1 °F 57.1 °F 29.60 in NNE 16.0 mph 30.0 mph 93% 0.03 in RA
17:25 59.1 °F 57.1 °F 29.60 in NNE 16.0 mph 30.0 mph 93% 0.03 in RA
17:30 59.1 °F 57.1 °F 29.61 in NNE 16.0 mph 30.0 mph 93% 0.02 in RA
17:40 59.1 °F 57.1 °F 29.60 in NNE 16.0 mph 30.0 mph 93% 0.03 in RA
17:45 59.1 °F 57.1 °F 29.61 in NNE 16.0 mph 30.0 mph 93% 0.03 in RA
17:50 59.1 °F 57.1 °F 29.61 in NNE 16.0 mph 30.0 mph 93% 0.05 in RA
17:55 59.2 °F 57.1 °F 29.61 in NNE 16.0 mph 30.0 mph 93% 0.04 in RA
18:00 59.2 °F 57.2 °F 29.61 in NNE 16.0 mph 30.0 mph 93% 0.03 in RA
18:05 59.2 °F 57.2 °F 29.61 in NNE 16.0 mph 30.0 mph 93% 0.02 in RA
18:10 59.2 °F 57.2 °F 29.61 in NNE 16.0 mph 30.0 mph 93% 0.02 in RA
18:15 59.3 °F 57.3 °F 29.61 in NE 9.0 mph 30.0 mph 93% 0.03 in RA
18:20 59.3 °F 57.3 °F 29.60 in NE 9.0 mph 21.0 mph 93% 0.02 in RA
18:25 59.4 °F 57.4 °F 29.60 in NE 9.0 mph 21.0 mph 93% 0.01 in RA
18:30 59.5 °F 57.5 °F 29.61 in NE 9.0 mph 21.0 mph 93% 0.02 in RA
18:35 59.5 °F 57.5 °F 29.61 in NE 9.0 mph 21.0 mph 93% 0.03 in RA
18:40 59.6 °F 57.6 °F 29.61 in NE 9.0 mph 21.0 mph 93% 0.04 in RA
18:45 59.6 °F 57.6 °F 29.61 in North 9.0 mph 21.0 mph 93% 0.05 in +RA
18:50 59.6 °F 57.6 °F 29.61 in NW 9.0 mph 21.0 mph 93% 0.07 in +RA
18:55 59.7 °F 57.7 °F 29.61 in NNE 9.0 mph 21.0 mph 93% 0.05 in +RA
19:00 59.7 °F 57.7 °F 29.61 in NNW 9.0 mph 21.0 mph 93% 0.06 in +RA
19:05 59.7 °F 57.7 °F 29.60 in NW 9.0 mph 21.0 mph 93% 0.05 in +RA
19:10 59.8 °F 57.8 °F 29.59 in NNW 9.0 mph 21.0 mph 93% 0.03 in +RA
19:15 59.8 °F 57.8 °F 29.59 in NNE 12.0 mph 23.0 mph 93% 0.02 in -RA
19:20 59.9 °F 57.8 °F 29.59 in NNE 12.0 mph 23.0 mph 93% 0.03 in -RA
19:25 59.9 °F 57.9 °F 29.58 in NNE 8.0 mph 23.0 mph 93% 0.02 in -RA
19:30 59.9 °F 57.9 °F 29.58 in NNE 8.0 mph 8.0 mph 93% 0.03 in -RA
19:40 59.9 °F 57.9 °F 29.58 in NNE 8.0 mph 8.0 mph 93% 0.01 in -RA
19:45 60.0 °F 58.0 °F 29.58 in NNE 10.0 mph 25.0 mph 93% 0.02 in -RA
19:50 60.0 °F 58.0 °F 29.58 in NNE 10.0 mph 25.0 mph 93% 0.01 in -RA
19:55 60.0 °F 58.0 °F 29.57 in NE 9.0 mph 25.0 mph 93% 0.02 in -RA
20:00 60.0 °F 58.0 °F 29.57 in NE 9.0 mph 20.0 mph 93% 0.01 in -RA
20:05 60.1 °F 58.0 °F 29.57 in NE 9.0 mph 20.0 mph 93% 0.01 in -RA
20:10 60.0 °F 58.0 °F 29.57 in NE 9.0 mph 20.0 mph 93% 0.02 in -RA
20:15 60.0 °F 58.0 °F 29.57 in ENE 13.0 mph 33.0 mph 93% 0.03 in -RA
20:20 60.0 °F 58.0 °F 29.57 in ENE 13.0 mph 33.0 mph 93% 0.02 in -RA
20:25 60.0 °F 58.0 °F 29.57 in ENE 13.0 mph 33.0 mph 93% 0.02 in -RA
20:30 59.9 °F 57.9 °F 29.56 in ENE 13.0 mph 33.0 mph 93% 0.03 in -RA
20:35 59.9 °F 57.9 °F 29.57 in ENE 13.0 mph 33.0 mph 93% 0.03 in -RA
20:40 59.9 °F 57.9 °F 29.56 in ENE 13.0 mph 33.0 mph 93% 0.02 in -RA
20:45 59.8 °F 57.8 °F 29.56 in ENE 13.0 mph 33.0 mph 93% 0.02 in -RA
20:50 59.8 °F 57.8 °F 29.56 in ENE 13.0 mph 33.0 mph 93% 0.02 in -RA
20:55 59.8 °F 57.8 °F 29.56 in ENE 13.0 mph 33.0 mph 93% 0.02 in -RA
21:00 59.8 °F 57.8 °F 29.56 in ENE 13.0 mph 33.0 mph 93% 0.02 in -RA
21:05 59.8 °F 57.8 °F 29.56 in ENE 13.0 mph 33.0 mph 93% 0.02 in -RA
21:10 59.9 °F 57.9 °F 29.56 in ENE 13.0 mph 33.0 mph 93% 0.01 in -RA
21:15 59.9 °F 57.9 °F 29.56 in ENE 9.0 mph 33.0 mph 93% 0.02 in -RA
21:20 59.9 °F 57.9 °F 29.55 in NE 9.0 mph 9.0 mph 93% 0.02 in -RA
21:25 59.9 °F 57.9 °F 29.56 in NE 9.0 mph 9.0 mph 93% 0.01 in -RA
21:30 60.0 °F 58.0 °F 29.55 in NE 9.0 mph 9.0 mph 93% 0.01 in -RA
21:40 60.0 °F 58.0 °F 29.56 in NE 9.0 mph 9.0 mph 93% 0.01 in -RA
21:45 60.0 °F 58.0 °F 29.55 in NE 9.0 mph 25.0 mph 93% 0.00 in -RA
21:50 60.0 °F 58.0 °F 29.55 in ENE 9.0 mph 25.0 mph 93% 0.01 in -RA
21:55 60.0 °F 58.0 °F 29.55 in NE 13.0 mph 29.0 mph 93% 0.00 in -RA
22:00 60.1 °F 58.1 °F 29.55 in NE 13.0 mph 29.0 mph 93% 0.00 in -RA
22:05 60.1 °F 58.1 °F 29.55 in NE 13.0 mph 29.0 mph 93% 0.00 in -RA
22:10 60.1 °F 58.1 °F 29.55 in NE 13.0 mph 29.0 mph 93% 0.01 in -RA
22:15 60.1 °F 58.1 °F 29.55 in NE 13.0 mph 32.0 mph 93% 0.00 in -RA
22:20 60.1 °F 58.1 °F 29.55 in ENE 13.0 mph 32.0 mph 93% 0.00 in -RA
22:25 60.2 °F 58.2 °F 29.55 in ENE 13.0 mph 32.0 mph 93% 0.00 in -RA
22:30 60.2 °F 58.2 °F 29.55 in ENE 13.0 mph 32.0 mph 93% 0.00 in -RA
22:35 60.3 °F 58.3 °F 29.55 in ENE 13.0 mph 32.0 mph 93% 0.01 in -RA
22:40 60.4 °F 58.4 °F 29.55 in ENE 13.0 mph 32.0 mph 93% 0.00 in -RA
22:45 60.4 °F 58.4 °F 29.55 in ENE 10.0 mph 32.0 mph 93% 0.00 in -RA
22:50 60.4 °F 58.4 °F 29.55 in ENE 10.0 mph 26.0 mph 93% 0.00 in -RA
22:55 60.5 °F 58.5 °F 29.54 in ENE 10.0 mph 26.0 mph 93% 0.00 in -RA
23:00 60.5 °F 58.5 °F 29.55 in ENE 10.0 mph 26.0 mph 93% 0.01 in -RA
23:05 60.6 °F 58.6 °F 29.54 in ENE 10.0 mph 26.0 mph 93% 0.01 in -RA
23:10 60.7 °F 58.6 °F 29.54 in ENE 10.0 mph 26.0 mph 93% 0.01 in -RA
23:15 60.7 °F 58.7 °F 29.54 in ENE 9.0 mph 26.0 mph 93% 0.00 in -RA
23:25 60.9 °F 58.8 °F 29.55 in ENE 12.0 mph 32.0 mph 93% 0.00 in -RA
23:30 60.9 °F 58.9 °F 29.55 in ENE 12.0 mph 32.0 mph 93% 0.01 in -RA
23:35 61.0 °F 58.9 °F 29.55 in ENE 12.0 mph 32.0 mph 93% 0.00 in -RA
23:55 61.1 °F 59.1 °F 29.56 in ENE 12.0 mph 32.0 mph 93% 0.00 in -RA
Piedmont Bend
Compliments of Weather Underground - 2 mb